createdAt,value
2022-10-12T00:00:34.461Z,83.70
2022-10-12T00:03:36.466Z,83.70
2022-10-12T00:06:38.363Z,83.70
2022-10-12T00:09:41.412Z,83.60
2022-10-12T00:12:43.225Z,85.60
2022-10-12T00:15:45.070Z,85.80
2022-10-12T00:18:51.286Z,86.20
2022-10-12T00:21:53.085Z,88.00
2022-10-12T00:24:54.988Z,88.70
2022-10-12T00:27:56.845Z,90.00
2022-10-12T00:30:58.707Z,90.00
2022-10-12T00:34:01.878Z,90.20
2022-10-12T00:37:03.692Z,87.80
2022-10-12T00:40:06.075Z,88.10
2022-10-12T00:43:30.970Z,89.60
2022-10-12T00:46:50.996Z,92.20
2022-10-12T00:50:03.020Z,93.40
2022-10-12T00:53:08.205Z,93.70
2022-10-12T00:56:13.039Z,94.10
2022-10-12T00:59:19.540Z,95.30
2022-10-12T01:02:21.897Z,95.80
2022-10-12T01:05:23.745Z,95.90
2022-10-12T01:08:25.634Z,95.90
2022-10-12T01:11:27.461Z,96.00
2022-10-12T01:14:29.265Z,95.60
2022-10-12T01:18:09.897Z,95.60
2022-10-12T01:21:18.580Z,96.80
2022-10-12T01:24:54.545Z,95.40
2022-10-12T01:28:01.573Z,95.90
2022-10-12T01:31:09.082Z,95.90
2022-10-12T01:34:48.427Z,95.90
2022-10-12T01:38:08.540Z,96.70
2022-10-12T01:41:30.452Z,97.00
2022-10-12T01:44:32.727Z,96.90
2022-10-12T01:47:34.980Z,97.00
2022-10-12T01:50:50.456Z,97.60
2022-10-12T01:54:15.354Z,99.30
2022-10-12T01:57:35.717Z,99.20
2022-10-12T02:01:03.260Z,99.30
2022-10-12T02:04:19.025Z,98.70
2022-10-12T02:07:26.121Z,99.90
2022-10-12T02:10:39.007Z,99.90
2022-10-12T02:13:58.030Z,99.90
2022-10-12T02:17:00.450Z,99.90
2022-10-12T02:20:02.312Z,99.90
2022-10-12T02:23:04.248Z,99.90
2022-10-12T02:26:06.099Z,99.90
2022-10-12T02:29:14.583Z,99.90
2022-10-12T02:32:38.788Z,99.90
2022-10-12T02:35:50.757Z,99.90
2022-10-12T02:39:01.239Z,99.90
2022-10-12T02:42:06.651Z,99.90
2022-10-12T02:45:09.006Z,99.90
2022-10-12T02:48:12.135Z,99.90
2022-10-12T02:51:14.115Z,99.50
2022-10-12T02:54:16.047Z,99.90
2022-10-12T02:57:18.064Z,99.40
2022-10-12T03:00:19.971Z,99.90
2022-10-12T03:03:22.275Z,99.90
2022-10-12T03:06:24.179Z,99.90
2022-10-12T03:09:26.048Z,99.90
2022-10-12T03:12:27.888Z,99.90
2022-10-12T03:15:29.732Z,99.90
2022-10-12T03:18:32.156Z,99.90
2022-10-12T03:21:34.021Z,99.90
2022-10-12T03:24:35.899Z,99.90
2022-10-12T03:27:38.051Z,99.90
2022-10-12T03:30:40.253Z,99.90
2022-10-12T03:33:42.113Z,99.90
2022-10-12T03:36:43.992Z,99.90
2022-10-12T03:39:46.312Z,99.90
2022-10-12T03:42:48.138Z,99.90
2022-10-12T03:45:50.013Z,99.90
2022-10-12T03:48:51.857Z,99.90
2022-10-12T03:51:53.800Z,99.90
2022-10-12T03:54:55.656Z,99.90
2022-10-12T03:57:57.584Z,99.90
2022-10-12T04:00:59.455Z,99.90
2022-10-12T04:04:01.356Z,99.90
2022-10-12T04:07:03.185Z,99.90
2022-10-12T04:10:05.541Z,99.90
2022-10-12T04:13:07.404Z,99.90
2022-10-12T04:16:09.437Z,99.90
2022-10-12T04:19:13.324Z,99.90
2022-10-12T04:22:15.181Z,99.90
2022-10-12T04:25:17.065Z,99.20
2022-10-12T04:28:18.968Z,98.70
2022-10-12T04:31:20.806Z,97.30
2022-10-12T04:34:22.650Z,91.90
2022-10-12T04:37:26.208Z,89.90
2022-10-12T04:40:28.050Z,88.50
2022-10-12T04:43:30.010Z,89.00
2022-10-12T04:46:32.084Z,90.20
2022-10-12T04:49:33.895Z,91.20
2022-10-12T04:52:35.772Z,91.20
2022-10-12T04:55:37.827Z,91.90
2022-10-12T04:58:39.738Z,91.20
2022-10-12T05:01:41.647Z,91.70
2022-10-12T05:04:43.597Z,93.00
2022-10-12T05:07:45.409Z,93.80
2022-10-12T05:10:47.467Z,92.70
2022-10-12T05:13:49.391Z,93.20
2022-10-12T05:16:51.212Z,94.40
2022-10-12T05:19:53.037Z,94.60
2022-10-12T05:22:56.682Z,93.40
2022-10-12T05:25:58.518Z,94.10
2022-10-12T05:29:00.512Z,93.60
2022-10-12T05:32:02.351Z,95.00
2022-10-12T05:35:04.956Z,93.00
2022-10-12T05:38:06.777Z,95.10
2022-10-12T05:41:08.627Z,99.80
2022-10-12T05:44:10.425Z,99.60
2022-10-12T05:47:12.299Z,99.50
2022-10-12T05:50:14.191Z,98.40
2022-10-12T05:53:16.007Z,97.10
2022-10-12T05:56:17.884Z,96.30
2022-10-12T05:59:19.712Z,95.40
2022-10-12T06:02:21.507Z,96.20
2022-10-12T06:05:23.393Z,96.40
2022-10-12T06:08:25.188Z,97.20
2022-10-12T06:11:27.971Z,96.80
2022-10-12T06:14:31.261Z,96.70
2022-10-12T06:17:33.880Z,96.50
2022-10-12T06:20:35.683Z,96.00
2022-10-12T06:23:37.550Z,96.30
2022-10-12T06:26:39.379Z,95.90
2022-10-12T06:29:41.227Z,94.80
2022-10-12T06:32:43.160Z,95.10
2022-10-12T06:35:45.039Z,94.70
2022-10-12T06:38:46.911Z,94.10
2022-10-12T06:41:48.756Z,94.00
2022-10-12T06:44:50.609Z,93.90
2022-10-12T06:47:52.424Z,93.60
2022-10-12T06:50:54.235Z,93.40
2022-10-12T06:53:56.175Z,92.80
2022-10-12T06:56:58.801Z,91.60
2022-10-12T07:00:00.679Z,91.70
2022-10-12T07:03:02.565Z,92.50
2022-10-12T07:06:09.000Z,90.90
2022-10-12T07:09:10.897Z,90.20
2022-10-12T07:12:12.724Z,89.10
2022-10-12T07:15:14.638Z,87.40
2022-10-12T07:18:16.491Z,84.50
2022-10-12T07:21:18.332Z,82.90
2022-10-12T07:24:20.141Z,80.60
2022-10-12T07:27:22.022Z,80.50
2022-10-12T07:30:23.881Z,79.90
2022-10-12T07:33:25.754Z,78.80
2022-10-12T07:36:47.200Z,78.00
2022-10-12T07:39:49.678Z,78.30
2022-10-12T07:43:14.640Z,79.00
2022-10-12T07:46:13.365Z,80.00
2022-10-12T07:49:15.501Z,81.00
2022-10-12T07:52:17.381Z,80.50
2022-10-12T07:55:19.296Z,79.50
2022-10-12T07:58:21.154Z,78.10
2022-10-12T08:01:24.846Z,79.50
2022-10-12T08:04:26.786Z,79.40
2022-10-12T08:07:28.603Z,77.40
2022-10-12T08:10:30.437Z,74.50
2022-10-12T08:13:32.567Z,73.10
2022-10-12T08:16:34.393Z,71.20
2022-10-12T08:19:36.551Z,73.20
2022-10-12T08:22:38.418Z,70.10
2022-10-12T08:25:40.338Z,67.40
2022-10-12T08:28:42.269Z,65.00
2022-10-12T08:31:44.232Z,65.70
2022-10-12T08:34:46.072Z,64.90
2022-10-12T08:37:47.931Z,64.30
2022-10-12T08:40:54.840Z,62.20
2022-10-12T08:44:02.833Z,61.40
2022-10-12T08:47:42.875Z,55.40
2022-10-12T08:50:51.878Z,37.10
2022-10-12T08:54:02.947Z,45.90
2022-10-12T08:57:04.761Z,33.80
2022-10-12T09:00:10.020Z,40.60
2022-10-12T09:03:43.326Z,27.20
2022-10-12T09:06:49.761Z,29.90
2022-10-12T09:10:06.504Z,36.00
2022-10-12T09:13:31.092Z,28.50
2022-10-12T09:16:34.469Z,36.90
2022-10-12T09:19:41.129Z,36.50
2022-10-12T09:22:45.129Z,35.40
2022-10-12T09:25:47.373Z,34.80
2022-10-12T09:28:54.804Z,32.50
2022-10-12T09:32:20.443Z,29.20
2022-10-12T09:35:22.236Z,25.30
2022-10-12T09:38:24.569Z,28.20
2022-10-12T09:41:38.384Z,30.00
2022-10-12T09:44:56.691Z,30.10
2022-10-12T09:48:28.702Z,29.90
2022-10-12T09:51:30.793Z,28.40
2022-10-12T09:54:32.762Z,31.00
2022-10-12T09:57:37.224Z,26.40
2022-10-12T10:00:39.046Z,23.50
2022-10-12T10:03:40.910Z,25.40
2022-10-12T10:06:44.668Z,20.50
2022-10-12T10:09:47.159Z,19.20
2022-10-12T10:12:59.135Z,22.40
2022-10-12T10:16:10.763Z,19.00
2022-10-12T10:19:16.631Z,15.90
2022-10-12T10:22:19.076Z,14.90
2022-10-12T10:25:22.032Z,17.70
2022-10-12T10:28:34.617Z,19.30
2022-10-12T10:31:36.597Z,17.40
2022-10-12T10:34:39.334Z,20.10
2022-10-12T10:37:57.222Z,20.30
2022-10-12T10:40:59.035Z,22.00
2022-10-12T10:44:00.820Z,22.50
2022-10-12T10:47:12.865Z,23.30
2022-10-12T10:50:23.328Z,23.40
2022-10-12T10:53:26.348Z,24.70
2022-10-12T10:56:29.579Z,24.40
2022-10-12T10:59:42.685Z,24.00
2022-10-12T11:02:49.363Z,24.80
2022-10-12T11:06:03.214Z,25.00
2022-10-12T11:09:16.478Z,26.00
2022-10-12T11:12:21.672Z,26.60
2022-10-12T11:15:44.188Z,27.30
2022-10-12T11:19:00.068Z,28.50
2022-10-12T11:22:12.694Z,29.00
2022-10-12T11:25:39.016Z,27.20
2022-10-12T11:28:40.963Z,27.20
2022-10-12T11:32:03.849Z,27.40
2022-10-12T11:35:06.456Z,26.40
2022-10-12T11:38:14.948Z,26.60
2022-10-12T11:42:03.131Z,27.30
2022-10-12T11:45:27.584Z,27.00
2022-10-12T11:48:33.834Z,27.70
2022-10-12T11:51:35.695Z,26.10
2022-10-12T11:54:37.507Z,26.60
2022-10-12T11:57:39.331Z,24.30
2022-10-12T12:00:44.030Z,23.80
2022-10-12T12:03:45.921Z,25.30
2022-10-12T12:06:49.396Z,25.50
2022-10-12T12:09:51.879Z,23.10
2022-10-12T12:13:15.151Z,23.10
2022-10-12T12:16:17.093Z,23.10
2022-10-12T12:19:50.910Z,24.70
2022-10-12T12:22:54.695Z,25.20
2022-10-12T12:26:06.583Z,24.60
2022-10-12T12:29:15.581Z,27.50
2022-10-12T12:32:17.411Z,25.20
2022-10-12T12:35:22.365Z,25.80
2022-10-12T12:38:34.552Z,25.90
2022-10-12T12:41:54.075Z,26.10
2022-10-12T12:44:58.844Z,25.90
2022-10-12T12:48:00.684Z,25.60
2022-10-12T12:51:02.523Z,24.90
2022-10-12T12:54:06.920Z,24.90
2022-10-12T12:57:23.789Z,25.70
2022-10-12T13:00:26.799Z,23.70
2022-10-12T13:04:06.232Z,25.40
2022-10-12T13:07:29.142Z,23.40
2022-10-12T13:10:38.936Z,27.00
2022-10-12T13:14:15.835Z,25.50
2022-10-12T13:17:32.207Z,24.40
2022-10-12T13:20:38.642Z,25.90
2022-10-12T13:23:40.518Z,24.50
2022-10-12T13:26:44.384Z,22.80
2022-10-12T13:29:46.980Z,23.00
2022-10-12T13:33:16.004Z,23.30
2022-10-12T13:36:29.115Z,20.90
2022-10-12T13:39:36.382Z,22.20
2022-10-12T13:42:40.208Z,24.90
2022-10-12T13:45:48.467Z,25.10
2022-10-12T13:49:05.703Z,23.70
2022-10-12T13:52:13.609Z,24.60
2022-10-12T13:55:15.716Z,26.20
2022-10-12T13:58:21.723Z,26.60
2022-10-12T14:01:23.670Z,27.50
2022-10-12T14:04:31.107Z,26.90
2022-10-12T14:07:35.382Z,27.50
2022-10-12T14:10:38.092Z,27.60
2022-10-12T14:13:39.902Z,26.70
2022-10-12T14:16:41.695Z,28.00
2022-10-12T14:19:48.081Z,27.20
2022-10-12T14:22:50.015Z,27.90
2022-10-12T14:25:54.103Z,27.60
2022-10-12T14:28:56.680Z,27.40
2022-10-12T14:32:00.476Z,27.90
2022-10-12T14:35:26.434Z,28.60
2022-10-12T14:38:41.596Z,31.20
2022-10-12T14:41:44.664Z,31.00
2022-10-12T14:44:46.496Z,31.50
2022-10-12T14:47:49.106Z,31.10
2022-10-12T14:50:51.124Z,31.10
2022-10-12T14:54:03.266Z,31.40
2022-10-12T14:57:15.812Z,32.10
2022-10-12T15:00:19.642Z,34.40
2022-10-12T15:03:21.515Z,33.00
2022-10-12T15:06:23.337Z,33.60
2022-10-12T15:09:25.237Z,34.00
2022-10-12T15:12:27.887Z,34.30
2022-10-12T15:15:39.716Z,36.00
2022-10-12T15:18:41.577Z,38.00
2022-10-12T15:21:43.600Z,37.20
2022-10-12T15:24:45.609Z,37.80
2022-10-12T15:27:47.490Z,38.90
2022-10-12T15:31:15.823Z,39.10
2022-10-12T15:34:14.632Z,39.40
2022-10-12T15:37:16.864Z,41.90
2022-10-12T15:40:20.024Z,43.40
2022-10-12T15:43:21.864Z,42.50
2022-10-12T15:46:23.705Z,44.30
2022-10-12T15:49:25.593Z,44.90
2022-10-12T15:52:27.436Z,46.80
2022-10-12T15:55:29.743Z,46.30
2022-10-12T15:58:31.496Z,48.20
2022-10-12T16:01:34.548Z,53.90
2022-10-12T16:04:36.345Z,48.70
2022-10-12T16:07:38.168Z,50.50
2022-10-12T16:10:40.548Z,53.10
2022-10-12T16:13:47.953Z,54.10
2022-10-12T16:16:53.122Z,62.50
2022-10-12T16:19:55.016Z,59.00
2022-10-12T16:22:56.906Z,57.00
2022-10-12T16:25:59.037Z,57.80
2022-10-12T16:29:00.832Z,60.60
2022-10-12T16:32:02.639Z,58.90
2022-10-12T16:35:05.079Z,60.70
2022-10-12T16:38:07.524Z,62.00
2022-10-12T16:41:10.949Z,63.50
2022-10-12T16:44:12.812Z,64.00
2022-10-12T16:47:14.744Z,64.70
2022-10-12T16:50:17.766Z,63.90
2022-10-12T16:53:19.627Z,66.10
2022-10-12T16:56:21.472Z,66.00
2022-10-12T16:59:23.663Z,66.50
2022-10-12T17:02:27.414Z,70.00
2022-10-12T17:05:29.236Z,67.90
2022-10-12T17:08:35.578Z,70.60
2022-10-12T17:11:38.112Z,72.00
2022-10-12T17:14:40.020Z,71.10
2022-10-12T17:17:41.899Z,71.90
2022-10-12T17:20:43.811Z,73.10
2022-10-12T17:23:45.630Z,73.50
2022-10-12T17:26:47.713Z,75.70
2022-10-12T17:29:49.608Z,75.90
2022-10-12T17:32:51.423Z,76.00
2022-10-12T17:35:53.209Z,76.10
2022-10-12T17:38:55.694Z,77.10
2022-10-12T17:41:57.532Z,76.10
2022-10-12T17:44:59.343Z,77.80
2022-10-12T17:48:01.717Z,75.90
2022-10-12T17:51:04.080Z,75.90
2022-10-12T17:54:05.949Z,82.00
2022-10-12T17:57:07.766Z,77.60
2022-10-12T18:00:10.373Z,77.10
2022-10-12T18:03:13.467Z,76.80
2022-10-12T18:06:17.586Z,75.30
2022-10-12T18:09:19.412Z,77.00
2022-10-12T18:12:21.211Z,75.70
2022-10-12T18:15:23.251Z,76.40
2022-10-12T18:18:25.141Z,77.30
2022-10-12T18:21:27.736Z,77.10
2022-10-12T18:24:29.560Z,77.70
2022-10-12T18:27:31.403Z,77.70
2022-10-12T18:30:33.336Z,78.10
2022-10-12T18:33:35.141Z,79.50
2022-10-12T18:36:37.014Z,78.90
2022-10-12T18:39:40.238Z,79.50
2022-10-12T18:42:42.064Z,80.60
2022-10-12T18:45:44.288Z,81.70
2022-10-12T18:48:46.205Z,79.60
2022-10-12T18:51:49.963Z,82.00
2022-10-12T18:54:51.792Z,81.30
2022-10-12T18:57:53.643Z,80.80
2022-10-12T19:00:55.546Z,80.20
2022-10-12T19:03:58.187Z,80.50
2022-10-12T19:07:00.034Z,81.60
2022-10-12T19:10:02.925Z,81.60
2022-10-12T19:13:04.776Z,81.60
2022-10-12T19:16:10.568Z,82.90
2022-10-12T19:19:19.666Z,81.80
2022-10-12T19:22:22.881Z,80.90
2022-10-12T19:25:24.720Z,80.00
2022-10-12T19:28:26.598Z,79.30
2022-10-12T19:31:30.037Z,81.80
2022-10-12T19:34:31.880Z,82.20
2022-10-12T19:37:33.755Z,79.30
2022-10-12T19:40:35.888Z,83.30
2022-10-12T19:43:37.834Z,80.40
2022-10-12T19:46:40.269Z,81.40
2022-10-12T19:49:45.290Z,81.30
2022-10-12T19:52:47.561Z,86.40
2022-10-12T19:55:49.748Z,83.00
2022-10-12T19:58:52.490Z,82.10
2022-10-12T20:01:54.297Z,82.30
2022-10-12T20:04:56.160Z,82.70
2022-10-12T20:07:58.007Z,84.00
2022-10-12T20:10:59.949Z,87.20
2022-10-12T20:14:01.936Z,90.50
2022-10-12T20:17:03.754Z,87.10
2022-10-12T20:20:06.516Z,88.40
2022-10-12T20:23:08.314Z,88.80
2022-10-12T20:26:12.816Z,90.40
2022-10-12T20:29:14.656Z,90.20
2022-10-12T20:32:16.793Z,90.30
2022-10-12T20:35:18.765Z,90.30
2022-10-12T20:38:20.719Z,90.40
2022-10-12T20:41:23.299Z,90.50
2022-10-12T20:44:25.155Z,91.00
2022-10-12T20:47:29.902Z,91.30
2022-10-12T20:50:31.788Z,92.20
2022-10-12T20:53:34.307Z,91.60
2022-10-12T20:56:36.068Z,92.20
2022-10-12T20:59:38.438Z,96.80
2022-10-12T21:02:40.218Z,93.00
2022-10-12T21:05:42.024Z,96.60
2022-10-12T21:08:43.895Z,93.60
2022-10-12T21:11:45.742Z,94.00
2022-10-12T21:14:47.574Z,94.00
2022-10-12T21:17:49.368Z,95.60
2022-10-12T21:20:58.503Z,94.70
2022-10-12T21:24:00.700Z,97.60
2022-10-12T21:27:02.571Z,96.80
2022-10-12T21:30:04.765Z,96.50
2022-10-12T21:33:06.630Z,98.00
2022-10-12T21:36:16.920Z,98.50
2022-10-12T21:39:18.787Z,99.90
2022-10-12T21:42:20.795Z,99.90
2022-10-12T21:45:22.842Z,99.10
2022-10-12T21:48:24.671Z,99.90
2022-10-12T21:51:27.034Z,99.90
2022-10-12T21:54:28.997Z,99.70
2022-10-12T21:57:31.023Z,99.90
2022-10-12T22:00:32.897Z,99.90
2022-10-12T22:03:35.095Z,99.90
2022-10-12T22:06:36.989Z,99.90
2022-10-12T22:09:38.783Z,99.90
2022-10-12T22:12:40.593Z,99.90
2022-10-12T22:15:42.418Z,99.90
2022-10-12T22:18:46.391Z,99.90
2022-10-12T22:21:49.036Z,99.90
2022-10-12T22:24:50.867Z,99.90
2022-10-12T22:27:52.690Z,99.90
2022-10-12T22:30:54.513Z,99.90
2022-10-12T22:33:56.426Z,99.90
2022-10-12T22:36:58.285Z,99.90
2022-10-12T22:40:00.422Z,99.90
2022-10-12T22:43:02.240Z,99.90
2022-10-12T22:46:04.196Z,99.90
2022-10-12T22:49:06.064Z,99.90
2022-10-12T22:52:07.931Z,99.90
2022-10-12T22:55:11.300Z,99.90
2022-10-12T22:58:13.193Z,99.90
2022-10-12T23:01:15.968Z,99.90
2022-10-12T23:04:17.812Z,99.90
2022-10-12T23:07:19.670Z,99.90
2022-10-12T23:10:21.679Z,99.90
2022-10-12T23:13:23.515Z,99.90
2022-10-12T23:16:31.850Z,99.90
2022-10-12T23:19:33.676Z,99.90
2022-10-12T23:22:36.351Z,99.90
2022-10-12T23:25:38.164Z,99.90
2022-10-12T23:28:40.103Z,99.90
2022-10-12T23:31:48.269Z,99.90
2022-10-12T23:34:50.132Z,99.90
2022-10-12T23:37:51.944Z,99.90
2022-10-12T23:40:53.821Z,99.90
2022-10-12T23:43:55.665Z,99.90
2022-10-12T23:46:57.471Z,99.90
2022-10-12T23:49:59.268Z,99.90
2022-10-12T23:53:01.112Z,99.90
2022-10-12T23:56:03.139Z,99.90
2022-10-12T23:59:04.960Z,99.90
